Time;durP1;ratioP1;P1;durP2;ratioP2;P2;SDS_P1;SDS_P2;PMS_P1;PMS_P2;Temp;Humidity;BMP_temperature;BMP_pressure;BME280_temperature;BME280_humidity;BME280_pressure;Samples;Min_cycle;Max_cycle;Signal;HPM_P1;HPM_P2
2021/10/20 00:01:59;;;;;;;;;;;11.80;99.90;;;10.45;100.00;96083.97;10577142;28;1984;-74
2021/10/20 00:07:02;;;;;;;;;;;11.70;99.90;;;10.42;100.00;96076.41;10578031;28;1945;-74
2021/10/20 00:12:05;;;;;;;;;;;11.60;99.90;;;10.42;100.00;96076.41;10576365;28;1746;-74
2021/10/20 00:17:08;;;;;;;;;;;11.60;99.90;;;10.38;100.00;96067.28;10556608;28;1752;-74
2021/10/20 00:22:31;;;;;;;;;;;11.60;99.90;;;10.40;100.00;96060.56;10574194;27;1992;-75
2021/10/20 00:27:34;;;;;;;;;;;11.60;99.90;;;10.28;100.00;96068.03;10575773;28;1847;-73
2021/10/20 00:32:37;;;;;;;;;;;11.50;99.90;;;10.22;100.00;96064.50;10571659;28;2389;-73
2021/10/20 00:37:40;;;;;;;;;;;11.50;99.90;;;10.24;100.00;96046.28;10576055;27;1910;-73
2021/10/20 00:42:43;;;;;;;;;;;11.40;99.90;;;10.22;100.00;96036.81;10566753;28;2016;-72
2021/10/20 00:47:46;;;;;;;;;;;11.40;99.90;;;10.22;100.00;96026.88;10559771;28;1795;-73
2021/10/20 00:52:49;;;;;;;;;;;11.50;99.90;;;10.17;100.00;96024.19;10576315;27;1389;-73
2021/10/20 00:57:52;;;;;;;;;;;11.40;99.90;;;10.11;100.00;96019.88;10570736;28;1859;-73
2021/10/20 01:02:55;;;;;;;;;;;11.30;99.90;;;10.14;100.00;96013.19;10570875;28;1973;-73
2021/10/20 01:07:58;;;;;;;;;;;11.30;99.90;;;10.00;100.00;96007.50;10570835;28;2002;-73
2021/10/20 01:13:20;;;;;;;;;;;11.30;99.90;;;9.85;100.00;96005.53;10570716;28;2022;-74
2021/10/20 01:18:44;;;;;;;;;;;11.20;99.90;;;9.83;100.00;95990.78;10571361;28;2017;-72
2021/10/20 01:24:07;;;;;;;;;;;11.00;99.90;;;9.79;100.00;95984.31;10573493;27;2038;-72
2021/10/20 01:29:15;;;;;;;;;;;11.00;99.90;;;9.67;100.00;95982.69;10557615;27;2021;-73
2021/10/20 01:34:18;;;;;;;;;;;11.00;99.90;;;9.60;100.00;95963.31;10571021;27;2211;-77
2021/10/20 01:39:21;;;;;;;;;;;10.90;99.90;;;9.57;100.00;95961.16;10571304;28;1923;-74
2021/10/20 01:44:24;;;;;;;;;;;10.80;99.90;;;9.51;100.00;95956.03;10569860;28;2096;-74
2021/10/20 01:49:27;;;;;;;;;;;10.70;99.90;;;9.42;100.00;95955.75;10554398;27;1967;-74
2021/10/20 01:54:30;;;;;;;;;;;10.70;99.90;;;9.36;100.00;95946.06;10570017;28;2042;-73
2021/10/20 01:59:33;;;;;;;;;;;10.60;99.90;;;9.31;100.00;95940.66;10552838;28;2006;-73
2021/10/20 02:04:36;;;;;;;;;;;10.60;99.90;;;9.27;100.00;95934.19;10568642;28;2029;-73
2021/10/20 02:09:39;;;;;;;;;;;10.50;99.90;;;9.21;100.00;95923.44;10573744;27;2005;-72
2021/10/20 02:14:42;;;;;;;;;;;10.40;99.90;;;9.16;100.00;95915.38;10565786;28;1974;-71
2021/10/20 02:19:45;;;;;;;;;;;10.40;99.90;;;9.11;100.00;95912.66;10567022;28;1976;-75
2021/10/20 02:24:47;;;;;;;;;;;10.40;99.90;;;9.07;100.00;95903.50;10570575;28;2081;-73
2021/10/20 02:29:50;;;;;;;;;;;10.30;99.90;;;8.99;100.00;95895.97;10567997;28;2039;-73
2021/10/20 02:34:53;;;;;;;;;;;10.30;99.90;;;9.01;100.00;95893.84;10568064;28;2000;-75
2021/10/20 02:39:56;;;;;;;;;;;10.20;99.90;;;9.00;100.00;95886.88;10568513;28;2114;-73
2021/10/20 02:44:59;;;;;;;;;;;10.20;99.90;;;8.93;100.00;95883.59;10568195;28;1984;-73
2021/10/20 02:50:02;;;;;;;;;;;10.20;99.90;;;8.96;100.00;95880.41;10569907;28;2107;-73
2021/10/20 02:55:05;;;;;;;;;;;10.20;99.90;;;8.90;100.00;95884.13;10563552;28;2510;-73
2021/10/20 03:00:08;;;;;;;;;;;10.10;99.90;;;8.87;100.00;95881.97;10548720;28;2053;-75
2021/10/20 03:05:11;;;;;;;;;;;10.10;99.90;;;8.88;100.00;95872.84;10567337;28;2091;-73
2021/10/20 03:10:14;;;;;;;;;;;10.10;99.90;;;8.82;100.00;95863.16;10566333;28;2019;-73
2021/10/20 03:15:17;;;;;;;;;;;10.10;99.90;;;8.87;100.00;95857.84;10564532;28;1959;-73
2021/10/20 03:20:20;;;;;;;;;;;10.10;99.90;;;8.82;100.00;95852.44;10570346;27;2125;-73
2021/10/20 03:25:23;;;;;;;;;;;10.00;99.90;;;8.84;100.00;95852.97;10566049;28;1986;-73
2021/10/20 03:30:26;;;;;;;;;;;10.00;99.90;;;8.82;100.00;95841.72;10568793;28;2039;-72
2021/10/20 03:35:29;;;;;;;;;;;10.00;99.90;;;8.81;100.00;95840.13;10548052;28;1987;-72
2021/10/20 03:40:32;;;;;;;;;;;10.00;99.90;;;8.78;100.00;95837.94;10567471;28;2015;-73
2021/10/20 03:45:35;;;;;;;;;;;10.00;99.90;;;8.85;100.00;95836.66;10566944;28;1999;-74
2021/10/20 03:50:37;;;;;;;;;;;10.00;99.90;;;8.87;100.00;95825.66;10569946;28;2062;-73
2021/10/20 03:55:40;;;;;;;;;;;10.00;99.90;;;8.84;100.00;95823.50;10569420;28;2045;-75
2021/10/20 04:00:43;;;;;;;;;;;10.00;99.90;;;8.78;100.00;95824.53;10566190;28;2130;-74
2021/10/20 04:05:47;;;;;;;;;;;10.00;99.90;;;8.78;100.00;95808.47;10566737;28;1995;-75
2021/10/20 04:10:50;;;;;;;;;;;10.00;99.90;;;8.81;100.00;95799.91;10567002;28;2014;-74
2021/10/20 04:15:53;;;;;;;;;;;10.00;99.90;;;8.83;100.00;95789.72;10566823;28;2011;-74
2021/10/20 04:20:56;;;;;;;;;;;10.00;99.90;;;8.84;100.00;95777.94;10571578;28;1914;-75
2021/10/20 04:25:59;;;;;;;;;;;10.00;99.90;;;8.89;100.00;95772.59;10571674;28;1988;-74
2021/10/20 04:31:02;;;;;;;;;;;10.00;99.90;;;8.98;100.00;95757.63;10562348;28;1858;-75
2021/10/20 04:36:05;;;;;;;;;;;10.10;99.90;;;9.05;100.00;95744.78;10574795;27;1965;-75
2021/10/20 04:41:08;;;;;;;;;;;10.10;99.90;;;9.20;100.00;95744.81;10575416;28;1906;-74
2021/10/20 04:46:11;;;;;;;;;;;10.30;99.90;;;9.24;100.00;95746.97;10572470;28;2148;-75
2021/10/20 04:51:14;;;;;;;;;;;10.30;99.90;;;9.12;100.00;95729.25;10575058;28;1878;-74
2021/10/20 04:56:16;;;;;;;;;;;10.30;99.90;;;9.15;100.00;95726.00;10571861;27;1878;-73
2021/10/20 05:01:19;;;;;;;;;;;10.30;99.90;;;9.09;100.00;95718.22;10577033;27;1986;-74
2021/10/20 05:06:23;;;;;;;;;;;10.30;99.90;;;9.01;100.00;95713.38;10572813;28;1894;-75
2021/10/20 05:11:26;;;;;;;;;;;10.20;99.90;;;8.97;100.00;95709.63;10569558;28;1886;-74
2021/10/20 05:16:28;;;;;;;;;;;10.20;99.90;;;8.88;100.00;95712.00;10574004;28;1839;-74
2021/10/20 05:21:31;;;;;;;;;;;10.10;99.90;;;8.89;100.00;95703.69;10573921;27;1839;-72
2021/10/20 05:26:34;;;;;;;;;;;10.00;99.90;;;8.98;100.00;95695.16;10573768;28;1828;-74
2021/10/20 05:31:37;;;;;;;;;;;10.10;99.90;;;8.97;100.00;95693.53;10571952;28;1918;-74
2021/10/20 05:36:40;;;;;;;;;;;10.10;99.90;;;9.18;100.00;95705.91;10568395;28;1925;-74
2021/10/20 05:41:43;;;;;;;;;;;10.20;99.90;;;9.17;100.00;95715.03;10573901;28;1914;-74
2021/10/20 05:46:48;;;;;;;;;;;10.30;99.90;;;9.29;100.00;95717.44;10569858;28;1807;-74
2021/10/20 05:51:51;;;;;;;;;;;10.40;99.90;;;9.36;100.00;95726.06;10573571;28;1903;-74
2021/10/20 05:56:53;;;;;;;;;;;10.50;99.90;;;9.33;100.00;95724.69;10569872;28;1933;-73
2021/10/20 06:01:56;;;;;;;;;;;10.50;99.90;;;9.24;100.00;95730.88;10571637;27;1975;-73
2021/10/20 06:06:59;;;;;;;;;;;10.40;99.90;;;9.11;100.00;95721.47;10571449;28;1930;-73
2021/10/20 06:12:02;;;;;;;;;;;10.30;99.90;;;9.10;100.00;95715.31;10569349;28;1851;-75
2021/10/20 06:17:05;;;;;;;;;;;10.20;99.90;;;9.05;100.00;95711.78;10571592;28;1846;-74
2021/10/20 06:22:08;;;;;;;;;;;10.20;99.90;;;9.06;100.00;95697.31;10572913;27;1916;-74
2021/10/20 06:27:11;;;;;;;;;;;10.10;99.90;;;9.07;100.00;95694.34;10568824;28;1941;-75
2021/10/20 06:32:14;;;;;;;;;;;10.10;99.90;;;9.15;100.00;95703.75;10549048;28;3390;-74
2021/10/20 06:37:17;;;;;;;;;;;10.10;99.90;;;9.29;100.00;95701.34;10546983;28;2561;-74
2021/10/20 06:42:23;;;;;;;;;;;10.20;99.90;;;9.44;100.00;95693.34;10569168;28;1926;-73
2021/10/20 06:47:26;;;;;;;;;;;10.30;99.90;;;9.63;100.00;95691.72;10566492;27;2230;-74
2021/10/20 06:52:29;;;;;;;;;;;10.50;99.90;;;9.83;100.00;95687.41;10568613;27;1893;-74
2021/10/20 06:57:32;;;;;;;;;;;10.70;99.90;;;10.04;100.00;95697.03;10567088;28;1830;-75
2021/10/20 07:02:35;;;;;;;;;;;10.90;99.90;;;10.11;100.00;95702.91;10553698;28;1957;-73
2021/10/20 07:07:38;;;;;;;;;;;11.00;99.90;;;10.32;100.00;95700.22;10567026;28;2347;-73
2021/10/20 07:12:41;;;;;;;;;;;11.10;99.90;;;10.41;100.00;95715.50;10570549;27;1863;-74
2021/10/20 07:17:44;;;;;;;;;;;11.30;99.90;;;10.51;100.00;95714.69;10563487;28;1827;-74
2021/10/20 07:22:47;;;;;;;;;;;11.40;99.90;;;10.72;100.00;95718.09;10569038;28;1997;-74
2021/10/20 07:27:50;;;;;;;;;;;11.50;99.90;;;10.85;100.00;95716.69;10569288;28;1867;-74
2021/10/20 07:32:53;;;;;;;;;;;11.70;99.90;;;11.01;100.00;95719.03;10567444;28;1973;-71
2021/10/20 07:37:56;;;;;;;;;;;11.80;99.90;;;11.17;100.00;95708.97;10570357;28;1906;-73
2021/10/20 07:42:59;;;;;;;;;;;12.00;99.90;;;11.37;100.00;95703.44;10571925;28;1901;-75
2021/10/20 07:48:02;;;;;;;;;;;12.10;99.90;;;11.67;100.00;95701.63;10585653;28;1882;-72
2021/10/20 07:53:05;;;;;;;;;;;12.30;99.90;;;11.90;99.81;95694.72;10589323;28;1859;-75
2021/10/20 07:58:08;;;;;;;;;;;12.60;99.90;;;12.30;97.02;95690.81;10564615;28;1934;-75
2021/10/20 08:03:11;;;;;;;;;;;12.90;99.90;;;12.55;94.21;95691.63;10567564;28;2308;-74
2021/10/20 08:08:13;;;;;;;;;;;13.20;99.90;;;12.94;91.72;95694.09;10576529;27;1889;-75
2021/10/20 08:13:17;;;;;;;;;;;13.50;99.90;;;13.31;88.82;95679.06;10575385;27;1875;-74
2021/10/20 08:18:20;;;;;;;;;;;13.80;99.90;;;13.63;86.09;95683.69;10577336;27;1843;-73
2021/10/20 08:23:23;;;;;;;;;;;14.10;99.90;;;14.06;83.94;95705.94;10575201;28;1980;-75
2021/10/20 08:28:26;;;;;;;;;;;14.60;99.90;;;14.34;82.78;95702.16;10576256;28;1895;-75
2021/10/20 08:33:29;;;;;;;;;;;15.00;99.90;;;14.53;81.88;95699.41;10574702;28;1910;-73
2021/10/20 08:38:32;;;;;;;;;;;15.20;99.90;;;14.74;79.77;95699.78;10581257;28;2046;-73
2021/10/20 08:43:35;;;;;;;;;;;15.50;99.90;;;14.80;76.37;95686.97;10594704;28;1917;-73
2021/10/20 08:48:38;;;;;;;;;;;15.50;99.90;;;14.97;73.82;95680.94;10607939;28;1851;-74
2021/10/20 08:53:41;;;;;;;;;;;15.70;99.90;;;15.14;70.04;95670.25;10606810;27;1982;-74
2021/10/20 08:58:44;;;;;;;;;;;15.90;99.90;;;15.22;69.73;95671.47;10586040;27;1906;-75
2021/10/20 09:03:47;;;;;;;;;;;16.00;99.90;;;15.34;69.40;95666.31;10578804;28;1961;-72
2021/10/20 09:08:50;;;;;;;;;;;16.10;99.90;;;15.67;66.13;95658.78;10577907;28;1879;-74
2021/10/20 09:13:53;;;;;;;;;;;16.30;99.90;;;15.93;61.21;95669.78;10574709;28;1843;-75
2021/10/20 09:18:56;;;;;;;;;;;16.60;99.90;;;16.14;60.63;95662.72;10562514;28;2020;-75
2021/10/20 09:23:58;;;;;;;;;;;16.90;99.90;;;16.09;60.19;95652.00;10603857;27;1972;-73
2021/10/20 09:29:01;;;;;;;;;;;16.90;99.90;;;16.52;56.42;95647.88;10596142;28;1890;-74
2021/10/20 09:34:07;;;;;;;;;;;17.10;99.90;;;16.88;54.81;95636.84;10589522;28;1839;-75
2021/10/20 09:39:10;;;;;;;;;;;17.40;99.90;;;17.12;51.71;95629.03;10583918;28;1890;-72
2021/10/20 09:44:12;;;;;;;;;;;17.70;99.90;;;17.18;51.14;95616.91;10584337;28;1909;-75
2021/10/20 09:49:16;;;;;;;;;;;17.90;99.90;;;17.35;50.46;95618.00;10576557;28;1870;-72
2021/10/20 09:54:18;;;;;;;;;;;18.10;99.90;;;17.40;50.66;95606.97;10574550;28;1846;-72
2021/10/20 09:59:21;;;;;;;;;;;18.20;99.90;;;17.33;49.25;95596.59;10575395;28;1887;-73
2021/10/20 10:04:25;;;;;;;;;;;18.10;99.90;;;17.34;49.35;95584.63;10550107;28;1924;-74
2021/10/20 10:09:28;;;;;;;;;;;18.20;99.90;;;17.45;49.39;95576.94;10570740;28;1972;-74
2021/10/20 10:14:36;;;;;;;;;;;18.20;99.90;;;17.39;49.92;95567.34;10571019;28;1957;-73
2021/10/20 10:19:40;;;;;;;;;;;18.20;99.90;;;17.51;49.96;95553.91;10573143;28;1831;-74
2021/10/20 10:24:44;;;;;;;;;;;18.30;99.90;;;17.66;49.58;95541.72;10566386;28;1921;-74
2021/10/20 10:29:47;;;;;;;;;;;18.30;99.90;;;17.90;48.35;95536.56;10551905;28;1967;-74
2021/10/20 10:34:49;;;;;;;;;;;18.50;99.90;;;18.24;47.35;95522.00;10566754;27;1874;-74
2021/10/20 10:39:52;;;;;;;;;;;18.80;99.90;;;18.32;48.71;95520.34;10553001;28;1920;-75
2021/10/20 10:44:56;;;;;;;;;;;19.10;99.90;;;18.44;49.00;95514.19;10569505;28;1984;-74
2021/10/20 10:49:59;;;;;;;;;;;19.20;99.90;;;18.63;48.48;95506.38;10573671;27;1954;-74
2021/10/20 10:55:02;;;;;;;;;;;19.30;99.90;;;18.83;46.51;95508.38;10568101;28;1917;-73
2021/10/20 11:00:05;;;;;;;;;;;19.60;99.90;;;18.84;47.16;95506.44;10570764;28;1918;-73
2021/10/20 11:05:08;;;;;;;;;;;19.70;99.90;;;19.04;46.50;95507.56;10549170;28;1902;-74
2021/10/20 11:10:11;;;;;;;;;;;19.70;99.90;;;19.08;45.80;95500.28;10572230;28;1961;-73
2021/10/20 11:15:14;;;;;;;;;;;19.90;99.90;;;18.94;45.10;95499.78;10572902;28;1789;-73
2021/10/20 11:20:17;;;;;;;;;;;19.80;99.90;;;18.86;46.52;95480.44;10577285;28;1846;-73
2021/10/20 11:25:20;;;;;;;;;;;19.80;99.90;;;18.90;46.50;95470.50;10583265;27;1977;-74
2021/10/20 11:30:23;;;;;;;;;;;19.80;99.90;;;18.99;46.45;95462.25;10588079;28;1357;-72
2021/10/20 11:35:26;;;;;;;;;;;19.80;99.90;;;19.08;46.71;95462.16;10586837;28;1477;-75
2021/10/20 11:40:28;;;;;;;;;;;19.80;99.90;;;18.81;47.58;95447.97;10579159;28;1671;-73
2021/10/20 11:45:31;;;;;;;;;;;19.80;99.90;;;19.22;45.85;95446.31;10576880;28;1938;-75
2021/10/20 11:50:34;;;;;;;;;;;19.90;99.90;;;19.16;46.70;95434.03;10576352;27;1937;-75
2021/10/20 11:55:37;;;;;;;;;;;20.00;99.90;;;19.45;45.23;95425.69;10575274;28;1973;-73
2021/10/20 12:00:40;;;;;;;;;;;20.10;99.90;;;19.44;46.05;95418.66;10577045;28;1886;-74
2021/10/20 12:05:43;;;;;;;;;;;20.20;99.90;;;19.80;44.11;95416.34;10572446;28;1910;-73
2021/10/20 12:10:46;;;;;;;;;;;20.50;99.90;;;19.87;43.94;95411.09;10578645;27;1885;-75
2021/10/20 12:15:58;;;;;;;;;;;20.60;99.90;;;20.11;43.26;95400.19;10554629;27;1892;-76
2021/10/20 12:21:01;;;;;;;;;;;20.80;99.90;;;20.59;42.25;95386.78;10576319;28;1886;-72
2021/10/20 12:26:04;;;;;;;;;;;21.10;99.90;;;20.73;41.09;95392.63;10574419;28;1910;-73
2021/10/20 12:31:07;;;;;;;;;;;21.50;99.90;;;20.75;41.44;95391.16;10562438;28;2134;-73
2021/10/20 12:36:10;;;;;;;;;;;21.50;99.90;;;20.64;42.54;95384.59;10569729;27;2160;-73
2021/10/20 12:41:13;;;;;;;;;;;21.60;99.90;;;20.57;42.73;95384.38;10571970;28;2290;-74
2021/10/20 12:46:17;;;;;;;;;;;21.40;99.90;;;20.49;43.04;95388.06;10569100;28;1994;-73
2021/10/20 12:51:20;;;;;;;;;;;21.40;99.90;;;20.36;43.29;95384.56;10572799;27;1986;-74
2021/10/20 12:56:23;;;;;;;;;;;21.20;99.90;;;20.03;44.60;95381.97;10573692;28;1898;-74
2021/10/20 13:01:26;;;;;;;;;;;21.00;99.90;;;20.13;44.08;95375.25;10576069;28;1890;-74
2021/10/20 13:06:30;;;;;;;;;;;21.00;99.90;;;20.19;44.65;95371.94;10570854;28;2286;-75
2021/10/20 13:11:32;;;;;;;;;;;21.00;99.90;;;20.27;44.78;95375.69;10571249;28;2326;-73
2021/10/20 13:16:35;;;;;;;;;;;21.10;99.90;;;20.17;45.54;95376.19;10577178;27;2180;-72
2021/10/20 13:21:38;;;;;;;;;;;21.10;99.90;;;20.24;45.78;95387.31;10574658;28;1921;-75
2021/10/20 13:26:41;;;;;;;;;;;21.00;99.90;;;20.02;47.58;95385.06;10574320;28;2069;-73
2021/10/20 13:31:44;;;;;;;;;;;21.00;99.90;;;19.89;47.81;95393.25;10573539;28;2335;-72
2021/10/20 13:36:48;;;;;;;;;;;20.90;99.90;;;19.94;47.32;95395.75;10572250;28;1871;-73
2021/10/20 13:41:51;;;;;;;;;;;20.80;99.90;;;19.77;48.26;95398.69;10571475;28;1871;-75
2021/10/20 13:46:54;;;;;;;;;;;20.70;99.90;;;19.54;48.61;95389.38;10570774;28;1984;-74
2021/10/20 13:52:09;;;;;;;;;;;20.60;99.90;;;19.44;48.03;95391.38;10570811;28;1866;-75
2021/10/20 13:57:12;;;;;;;;;;;20.40;99.90;;;19.52;47.83;95389.69;10573121;28;2029;-75
2021/10/20 14:02:17;;;;;;;;;;;20.40;99.90;;;19.33;48.23;95378.53;10551130;28;1830;-75
2021/10/20 14:07:26;;;;;;;;;;;20.30;99.90;;;19.27;49.22;95377.97;10569516;28;2420;-75
2021/10/20 14:12:29;;;;;;;;;;;20.30;99.90;;;19.25;49.62;95371.28;10571190;27;1916;-73
2021/10/20 14:17:33;;;;;;;;;;;20.20;99.90;;;19.14;49.77;95373.63;10574618;27;1951;-74
2021/10/20 14:22:36;;;;;;;;;;;20.10;99.90;;;18.68;50.53;95361.13;10569077;28;1899;-74
2021/10/20 14:27:38;;;;;;;;;;;19.80;99.90;;;18.57;51.25;95366.16;10566456;28;1961;-74
2021/10/20 14:32:41;;;;;;;;;;;19.60;99.90;;;18.53;51.26;95362.53;10549239;28;1975;-73
2021/10/20 14:37:44;;;;;;;;;;;19.60;99.90;;;18.39;51.50;95360.09;10550894;28;1918;-74
2021/10/20 14:42:48;;;;;;;;;;;19.40;99.90;;;18.37;51.93;95363.13;10570789;28;1776;-73
2021/10/20 14:47:52;;;;;;;;;;;19.30;99.90;;;18.27;51.68;95352.66;10569833;28;1913;-74
2021/10/20 14:52:55;;;;;;;;;;;19.20;99.90;;;18.13;52.88;95356.75;10571457;28;1897;-73
2021/10/20 14:57:58;;;;;;;;;;;19.10;99.90;;;18.00;53.10;95348.53;10553991;28;1862;-74
2021/10/20 15:03:01;;;;;;;;;;;19.00;99.90;;;17.97;53.40;95342.97;10563460;28;1949;-72
2021/10/20 15:08:04;;;;;;;;;;;19.00;99.90;;;17.82;53.96;95334.28;10552655;28;2004;-74
2021/10/20 15:13:07;;;;;;;;;;;18.90;99.90;;;17.74;54.97;95324.25;10568697;28;1886;-74
2021/10/20 15:18:11;;;;;;;;;;;18.80;99.90;;;17.57;55.23;95297.16;10564177;27;2211;-74
2021/10/20 15:23:14;;;;;;;;;;;18.60;99.90;;;17.46;55.39;95301.38;10565128;28;1965;-73
2021/10/20 15:28:17;;;;;;;;;;;18.50;99.90;;;17.36;55.62;95301.75;10568643;28;1934;-74
2021/10/20 15:33:20;;;;;;;;;;;18.40;99.90;;;17.26;55.91;95297.50;10545596;28;1919;-74
2021/10/20 15:38:23;;;;;;;;;;;18.30;99.90;;;17.10;56.51;95289.09;10568918;28;1914;-73
2021/10/20 15:43:26;;;;;;;;;;;18.20;99.90;;;16.92;57.54;95288.38;10566590;28;1866;-73
2021/10/20 15:48:29;;;;;;;;;;;18.00;99.90;;;16.79;57.84;95278.50;10566613;28;2034;-75
2021/10/20 15:53:32;;;;;;;;;;;17.90;99.90;;;16.58;58.87;95272.97;10566963;28;1930;-74
2021/10/20 15:58:39;;;;;;;;;;;17.80;99.90;;;16.40;60.13;95271.41;10570338;28;1990;-75
2021/10/20 16:03:43;;;;;;;;;;;17.60;99.90;;;16.18;61.13;95253.44;10567338;28;1902;-71
2021/10/20 16:08:47;;;;;;;;;;;17.40;99.90;;;16.05;61.55;95249.78;10569723;28;1910;-73
2021/10/20 16:13:50;;;;;;;;;;;17.30;99.90;;;15.89;62.52;95240.53;10565784;28;1895;-74
2021/10/20 16:18:54;;;;;;;;;;;17.10;99.90;;;15.87;62.84;95230.03;10566808;28;1887;-74
2021/10/20 16:23:57;;;;;;;;;;;17.00;99.90;;;15.71;63.70;95228.09;10552140;28;1862;-73
2021/10/20 16:29:00;;;;;;;;;;;16.90;99.90;;;15.60;64.67;95228.41;10573091;27;1914;-74
2021/10/20 16:34:03;;;;;;;;;;;16.80;99.90;;;15.53;65.16;95216.47;10571736;28;1878;-74
2021/10/20 16:39:07;;;;;;;;;;;16.70;99.90;;;15.59;64.15;95215.97;10575593;27;1934;-74
2021/10/20 16:44:10;;;;;;;;;;;16.70;99.90;;;15.48;64.83;95209.28;10572277;28;1941;-76
2021/10/20 16:49:13;;;;;;;;;;;16.60;99.90;;;15.39;65.45;95216.59;10579124;28;1898;-75
2021/10/20 16:54:16;;;;;;;;;;;16.50;99.90;;;15.37;65.71;95202.56;10571773;28;1914;-75
2021/10/20 16:59:19;;;;;;;;;;;16.50;99.90;;;15.26;66.40;95214.81;10555101;28;2239;-74
2021/10/20 17:04:22;;;;;;;;;;;16.40;99.90;;;15.21;66.14;95209.59;10554636;27;1922;-75
2021/10/20 17:09:25;;;;;;;;;;;16.30;99.90;;;15.18;66.37;95204.78;10582463;27;1993;-76
2021/10/20 17:14:28;;;;;;;;;;;16.30;99.90;;;15.12;67.28;95196.81;10579555;27;1949;-75
2021/10/20 17:19:31;;;;;;;;;;;16.20;99.90;;;15.17;66.96;95186.94;10574802;28;1902;-75
2021/10/20 17:24:34;;;;;;;;;;;16.20;99.90;;;15.07;67.37;95185.34;10571272;28;1951;-75
2021/10/20 17:29:37;;;;;;;;;;;16.20;99.90;;;14.93;68.39;95177.34;10575218;28;1983;-73
2021/10/20 17:34:39;;;;;;;;;;;16.10;99.90;;;14.88;69.05;95175.56;10572028;28;1878;-75
2021/10/20 17:39:42;;;;;;;;;;;16.00;99.90;;;14.82;69.17;95173.34;10567059;28;1914;-76
2021/10/20 17:45:03;;;;;;;;;;;15.90;99.90;;;14.80;69.13;95165.53;10551990;28;1902;-76
2021/10/20 17:50:06;;;;;;;;;;;15.90;99.90;;;14.82;69.31;95170.63;10553264;28;1885;-74
2021/10/20 17:55:09;;;;;;;;;;;15.90;99.90;;;14.75;69.50;95162.19;10550165;28;1898;-75
2021/10/20 18:00:12;;;;;;;;;;;15.90;99.90;;;14.70;69.74;95154.25;10573802;28;1866;-73
2021/10/20 18:05:15;;;;;;;;;;;15.80;99.90;;;14.58;70.28;95144.81;10571278;27;1909;-74
2021/10/20 18:10:17;;;;;;;;;;;15.70;99.90;;;14.61;70.41;95146.06;10572309;28;1850;-76
2021/10/20 18:15:20;;;;;;;;;;;15.70;99.90;;;14.52;71.21;95146.06;10568036;28;1933;-75
2021/10/20 18:20:23;;;;;;;;;;;15.60;99.90;;;14.36;72.07;95135.94;10572307;28;1953;-74
2021/10/20 18:25:26;;;;;;;;;;;15.60;99.90;;;14.43;72.05;95131.66;10570656;28;1910;-74
2021/10/20 18:30:29;;;;;;;;;;;15.50;99.90;;;14.15;73.69;95122.19;10572681;27;1885;-74
2021/10/20 18:35:32;;;;;;;;;;;15.40;99.90;;;14.10;75.03;95114.22;10557851;28;1926;-75
2021/10/20 18:40:38;;;;;;;;;;;15.30;99.90;;;14.14;74.33;95107.09;10570646;28;1894;-73
2021/10/20 18:45:40;;;;;;;;;;;15.20;99.90;;;14.19;74.47;95093.44;10574023;28;1921;-74
2021/10/20 18:50:43;;;;;;;;;;;15.30;99.90;;;14.13;74.65;95095.50;10568157;28;1431;-74
2021/10/20 18:55:46;;;;;;;;;;;15.20;99.90;;;14.11;74.98;95083.38;10568250;28;1483;-74
2021/10/20 19:00:49;;;;;;;;;;;15.20;99.90;;;14.16;74.58;95085.94;10552475;28;1966;-74
2021/10/20 19:05:52;;;;;;;;;;;15.20;99.90;;;14.12;75.09;95066.03;10575088;27;1977;-75
2021/10/20 19:10:55;;;;;;;;;;;15.20;99.90;;;14.15;75.15;95065.44;10572442;28;1847;-75
2021/10/20 19:15:58;;;;;;;;;;;15.20;99.90;;;14.09;75.83;95058.59;10568331;28;1883;-75
2021/10/20 19:21:01;;;;;;;;;;;15.10;99.90;;;13.95;76.55;95054.09;10568826;28;1875;-73
2021/10/20 19:26:04;;;;;;;;;;;15.10;99.90;;;13.89;76.71;95049.94;10568804;28;1980;-74
2021/10/20 19:31:08;;;;;;;;;;;15.00;99.90;;;13.83;77.45;95026.06;10571153;28;1847;-75
2021/10/20 19:36:11;;;;;;;;;;;15.00;99.90;;;13.76;77.48;95021.13;10567833;28;1945;-76
2021/10/20 19:41:14;;;;;;;;;;;14.90;99.90;;;13.67;77.72;95017.56;10567450;28;1885;-76
2021/10/20 19:46:16;;;;;;;;;;;14.90;99.90;;;13.73;78.16;95016.31;10565942;28;1969;-74
2021/10/20 19:51:19;;;;;;;;;;;14.80;99.90;;;13.69;78.70;94999.16;10562511;28;1914;-76
2021/10/20 19:56:22;;;;;;;;;;;14.80;99.90;;;13.60;79.08;94995.63;10552955;28;1846;-76
2021/10/20 20:01:39;;;;;;;;;;;14.80;99.90;;;13.59;79.29;94985.91;10570913;28;2006;-75
2021/10/20 20:06:42;;;;;;;;;;;14.70;99.90;;;13.58;79.45;94978.94;10553427;28;1971;-75
2021/10/20 20:11:45;;;;;;;;;;;14.70;99.90;;;13.42;80.34;94967.72;10584415;27;2223;-75
2021/10/20 20:16:48;;;;;;;;;;;14.60;99.90;;;13.40;80.78;94959.94;10616251;27;1907;-74
2021/10/20 20:21:51;;;;;;;;;;;14.50;99.90;;;13.32;80.59;94949.13;10583623;27;2034;-74
2021/10/20 20:26:54;;;;;;;;;;;14.40;99.90;;;13.14;81.76;94948.22;10584388;28;1902;-77
2021/10/20 20:31:58;;;;;;;;;;;14.40;99.90;;;13.04;82.75;94934.97;10577357;27;1902;-76
2021/10/20 20:37:01;;;;;;;;;;;14.20;99.90;;;12.94;83.25;94947.63;10580033;27;1874;-76
2021/10/20 20:42:04;;;;;;;;;;;14.20;99.90;;;12.79;84.93;94934.53;10574835;27;1870;-76
2021/10/20 20:47:06;;;;;;;;;;;14.00;99.90;;;12.60;86.81;94920.44;10571176;28;1989;-76
2021/10/20 20:52:09;;;;;;;;;;;13.80;99.90;;;12.45;86.91;94911.59;10578839;27;1867;-75
2021/10/20 20:57:13;;;;;;;;;;;13.70;99.90;;;12.25;88.94;94906.69;10597762;28;1909;-75
2021/10/20 21:02:16;;;;;;;;;;;13.50;99.90;;;12.18;89.31;94898.22;10598194;28;1870;-75
2021/10/20 21:07:19;;;;;;;;;;;13.40;99.90;;;12.10;89.35;94891.69;10588867;27;2008;-74
2021/10/20 21:12:22;;;;;;;;;;;13.30;99.90;;;11.98;90.01;94882.53;10577560;28;1847;-75
2021/10/20 21:17:24;;;;;;;;;;;13.20;99.90;;;11.91;90.31;94872.19;10556977;28;1866;-75
2021/10/20 21:22:27;;;;;;;;;;;13.10;99.90;;;11.87;91.55;94869.28;10573124;28;1851;-76
2021/10/20 21:27:32;;;;;;;;;;;13.10;99.90;;;11.89;91.94;94859.00;10571637;27;1969;-74
2021/10/20 21:32:35;;;;;;;;;;;13.00;99.90;;;11.85;91.15;94849.16;10555059;27;1922;-74
2021/10/20 21:37:57;;;;;;;;;;;13.00;99.90;;;11.93;91.84;94834.97;10571058;27;1933;-75
2021/10/20 21:43:00;;;;;;;;;;;13.00;99.90;;;11.94;90.80;94816.91;10570968;28;1950;-75
2021/10/20 21:48:03;;;;;;;;;;;13.10;99.90;;;11.92;91.37;94819.13;10572460;28;2031;-75
2021/10/20 21:53:06;;;;;;;;;;;13.10;99.90;;;11.86;91.16;94802.28;10568091;28;1956;-74
2021/10/20 21:58:09;;;;;;;;;;;13.00;99.90;;;11.76;92.15;94794.41;10568915;28;1953;-74
2021/10/20 22:03:12;;;;;;;;;;;12.90;99.90;;;11.64;93.06;94781.47;10570363;28;1926;-75
2021/10/20 22:08:15;;;;;;;;;;;12.80;99.90;;;11.59;93.49;94768.94;10576611;27;1987;-72
2021/10/20 22:13:19;;;;;;;;;;;12.80;99.90;;;11.62;92.58;94757.56;10568052;27;1918;-75
2021/10/20 22:18:22;;;;;;;;;;;12.80;99.90;;;11.67;91.92;94748.56;10570410;28;1815;-74
2021/10/20 22:23:25;;;;;;;;;;;12.80;99.90;;;11.79;92.07;94739.94;10569301;28;2203;-74
2021/10/20 22:28:29;;;;;;;;;;;12.90;99.90;;;11.87;90.45;94739.25;10570530;28;1953;-73
2021/10/20 22:33:32;;;;;;;;;;;12.90;99.90;;;12.03;88.35;94729.69;10570851;27;2045;-75
2021/10/20 22:38:35;;;;;;;;;;;13.00;99.90;;;12.24;86.89;94716.50;10572348;27;1780;-75
2021/10/20 22:43:38;;;;;;;;;;;13.20;99.90;;;12.24;87.33;94716.50;10574275;27;1881;-74
2021/10/20 22:48:41;;;;;;;;;;;13.30;99.90;;;12.09;87.81;94712.31;10583188;27;1910;-74
2021/10/20 22:53:44;;;;;;;;;;;13.20;99.90;;;12.00;88.71;94702.56;10576396;28;1883;-73
2021/10/20 22:58:47;;;;;;;;;;;13.10;99.90;;;11.91;87.89;94713.31;10588717;28;1899;-74
2021/10/20 23:03:50;;;;;;;;;;;13.10;99.90;;;11.86;88.77;94686.50;10582736;28;1958;-74
2021/10/20 23:08:53;;;;;;;;;;;13.00;99.90;;;11.79;89.32;94676.13;10582525;28;1926;-75
2021/10/20 23:13:56;;;;;;;;;;;13.00;99.90;;;11.72;90.36;94675.78;10575695;28;1970;-73